createdAt,value
2022-10-28T00:00:25.542Z,99411.63
2022-10-28T00:03:35.205Z,99403.72
2022-10-28T00:06:40.804Z,99394.09
2022-10-28T00:09:47.240Z,99399.34
2022-10-28T00:12:52.824Z,99394.09
2022-10-28T00:15:59.350Z,99396.78
2022-10-28T00:19:13.404Z,99395.78
2022-10-28T00:22:19.852Z,99390.56
2022-10-28T00:25:25.479Z,99391.38
2022-10-28T00:28:32.463Z,99391.31
2022-10-28T00:31:38.966Z,99381.69
2022-10-28T00:34:48.197Z,99381.56
2022-10-28T00:37:56.209Z,99381.41
2022-10-28T00:41:03.357Z,99378.69
2022-10-28T00:44:42.372Z,99368.06
2022-10-28T00:47:56.089Z,99373.31
2022-10-28T00:51:06.517Z,99367.31
2022-10-28T00:54:14.989Z,99361.25
2022-10-28T00:57:25.384Z,99360.44
2022-10-28T01:00:32.055Z,99356.13
2022-10-28T01:03:39.839Z,99349.16
2022-10-28T01:06:49.898Z,99352.72
2022-10-28T01:09:55.529Z,99346.53
2022-10-28T01:13:13.121Z,99339.63
2022-10-28T01:16:31.791Z,99345.75
2022-10-28T01:20:03.361Z,99346.66
2022-10-28T01:23:18.153Z,99343.25
2022-10-28T01:26:44.366Z,99344.97
2022-10-28T01:30:11.230Z,99341.56
2022-10-28T01:33:29.318Z,99339.09
2022-10-28T01:36:42.041Z,99336.91
2022-10-28T01:39:55.522Z,99339.72
2022-10-28T01:43:12.199Z,99333.97
2022-10-28T01:46:23.903Z,99328.38
2022-10-28T01:49:39.826Z,99339.09
2022-10-28T01:52:48.358Z,99329.84
2022-10-28T01:55:58.182Z,99331.78
2022-10-28T01:59:10.445Z,99331.09
2022-10-28T02:02:17.980Z,99324.47
2022-10-28T02:05:42.887Z,99330.66
2022-10-28T02:09:18.147Z,99324.63
2022-10-28T02:12:29.876Z,99326.50
2022-10-28T02:15:47.150Z,99320.41
2022-10-28T02:19:03.362Z,99312.50
2022-10-28T02:22:21.678Z,99323.13
2022-10-28T02:25:35.625Z,99311.00
2022-10-28T02:28:46.040Z,99322.56
2022-10-28T02:31:55.248Z,99317.56
2022-10-28T02:35:03.867Z,99314.94
2022-10-28T02:38:18.716Z,99298.31
2022-10-28T02:41:29.932Z,99293.09
2022-10-28T02:44:41.602Z,99296.63
2022-10-28T02:47:50.635Z,99289.78
2022-10-28T02:51:01.086Z,99289.69
2022-10-28T02:54:14.503Z,99283.59
2022-10-28T02:57:24.804Z,99279.22
2022-10-28T03:00:30.479Z,99280.06
2022-10-28T03:03:37.138Z,99272.25
2022-10-28T03:06:42.990Z,99274.75
2022-10-28T03:09:52.442Z,99275.56
2022-10-28T03:12:58.105Z,99282.50
2022-10-28T03:16:06.567Z,99280.78
2022-10-28T03:19:12.203Z,99290.44
2022-10-28T03:22:18.772Z,99281.72
2022-10-28T03:25:27.912Z,99267.84
2022-10-28T03:28:34.362Z,99268.53
2022-10-28T03:31:39.916Z,99265.66
2022-10-28T03:34:47.539Z,99264.66
2022-10-28T03:37:53.120Z,99269.81
2022-10-28T03:41:03.326Z,99270.56
2022-10-28T03:44:09.352Z,99259.16
2022-10-28T03:47:15.808Z,99265.34
2022-10-28T03:50:21.759Z,99254.06
2022-10-28T03:53:31.144Z,99257.47
2022-10-28T03:56:40.735Z,99259.84
2022-10-28T03:59:47.206Z,99264.97
2022-10-28T04:02:54.051Z,99261.28
2022-10-28T04:06:00.694Z,99264.56
2022-10-28T04:09:08.205Z,99267.00
2022-10-28T04:12:17.465Z,99265.19
2022-10-28T04:15:23.103Z,99268.72
2022-10-28T04:18:29.839Z,99271.34
2022-10-28T04:21:35.579Z,99272.25
2022-10-28T04:24:42.024Z,99263.47
2022-10-28T04:27:51.942Z,99258.25
2022-10-28T04:30:58.633Z,99250.56
2022-10-28T04:34:06.618Z,99250.09
2022-10-28T04:37:16.930Z,99252.97
2022-10-28T04:40:23.845Z,99252.34
2022-10-28T04:43:33.080Z,99256.22
2022-10-28T04:46:38.745Z,99257.47
2022-10-28T04:49:45.497Z,99257.63
2022-10-28T04:52:51.375Z,99255.88
2022-10-28T04:56:00.720Z,99244.28
2022-10-28T04:59:10.852Z,99237.84
2022-10-28T05:02:17.788Z,99234.03
2022-10-28T05:05:23.809Z,99238.13
2022-10-28T05:08:31.377Z,99219.56
2022-10-28T05:11:37.334Z,99211.34
2022-10-28T05:14:48.994Z,99207.59
2022-10-28T05:17:56.869Z,99204.97
2022-10-28T05:21:03.599Z,99215.13
2022-10-28T05:24:09.922Z,99220.31
2022-10-28T05:27:16.581Z,99212.44
2022-10-28T05:30:25.374Z,99226.47
2022-10-28T05:33:33.785Z,99231.94
2022-10-28T05:36:39.438Z,99234.88
2022-10-28T05:39:48.391Z,99238.63
2022-10-28T05:42:54.419Z,99241.53
2022-10-28T05:46:04.020Z,99244.50
2022-10-28T05:49:11.752Z,99238.81
2022-10-28T05:52:18.250Z,99228.69
2022-10-28T05:55:28.414Z,99242.69
2022-10-28T05:58:35.017Z,99231.88
2022-10-28T06:01:44.211Z,99235.06
2022-10-28T06:04:50.972Z,99235.56
2022-10-28T06:07:56.628Z,99226.44
2022-10-28T06:11:02.096Z,99209.66
2022-10-28T06:14:07.784Z,99226.31
2022-10-28T06:17:17.113Z,99224.19
2022-10-28T06:20:23.792Z,99225.63
2022-10-28T06:23:30.272Z,99231.59
2022-10-28T06:26:36.859Z,99248.06
2022-10-28T06:29:43.306Z,99251.47
2022-10-28T06:32:51.732Z,99241.78
2022-10-28T06:35:58.726Z,99251.34
2022-10-28T06:39:06.556Z,99253.78
2022-10-28T06:42:13.160Z,99256.22
2022-10-28T06:45:18.808Z,99255.06
2022-10-28T06:48:29.560Z,99265.22
2022-10-28T06:51:35.449Z,99266.59
2022-10-28T06:55:14.055Z,99262.75
2022-10-28T06:58:19.649Z,99259.94
2022-10-28T07:01:26.346Z,99267.47
2022-10-28T07:04:36.862Z,99264.59
2022-10-28T07:07:43.621Z,99266.09
2022-10-28T07:10:57.839Z,99272.66
2022-10-28T07:14:07.872Z,99269.13
2022-10-28T07:17:13.498Z,99265.69
2022-10-28T07:20:22.753Z,99280.28
2022-10-28T07:23:28.472Z,99279.22
2022-10-28T07:26:34.935Z,99273.59
2022-10-28T07:29:40.609Z,99268.00
2022-10-28T07:32:47.108Z,99257.19
2022-10-28T07:35:55.494Z,99262.13
2022-10-28T07:39:04.005Z,99267.72
2022-10-28T07:42:09.689Z,99267.28
2022-10-28T07:45:16.202Z,99263.38
2022-10-28T07:48:21.860Z,99259.47
2022-10-28T07:51:31.505Z,99260.31
2022-10-28T07:54:37.182Z,99265.03
2022-10-28T07:57:43.913Z,99260.94
2022-10-28T08:00:50.045Z,99270.03
2022-10-28T08:03:56.580Z,99261.56
2022-10-28T08:07:07.408Z,99257.25
2022-10-28T08:10:13.879Z,99240.19
2022-10-28T08:13:19.533Z,99243.84
2022-10-28T08:16:29.184Z,99245.78
2022-10-28T08:19:35.100Z,99246.94
2022-10-28T08:22:44.669Z,99247.09
2022-10-28T08:25:53.508Z,99240.25
2022-10-28T08:29:13.660Z,99245.63
2022-10-28T08:32:19.423Z,99240.72
2022-10-28T08:35:28.585Z,99243.38
2022-10-28T08:38:39.570Z,99242.59
2022-10-28T08:41:55.586Z,99228.72
2022-10-28T08:45:19.946Z,99231.47
2022-10-28T08:48:33.269Z,99233.66
2022-10-28T08:51:44.040Z,99234.00
2022-10-28T08:54:56.683Z,99236.09
2022-10-28T08:58:08.461Z,99234.13
2022-10-28T09:01:23.361Z,99233.88
2022-10-28T09:04:38.910Z,99215.97
2022-10-28T09:07:45.756Z,99213.19
2022-10-28T09:11:07.038Z,99220.75
2022-10-28T09:14:31.855Z,99215.88
2022-10-28T09:17:47.475Z,99218.06
2022-10-28T09:21:12.631Z,99214.41
2022-10-28T09:24:45.858Z,99218.75
2022-10-28T09:28:23.219Z,99226.56
2022-10-28T09:31:46.938Z,99221.38
2022-10-28T09:35:12.121Z,99221.28
2022-10-28T09:38:38.750Z,99218.75
2022-10-28T09:42:04.014Z,99221.38
2022-10-28T09:45:34.129Z,99223.81
2022-10-28T09:49:04.080Z,99224.59
2022-10-28T09:52:29.501Z,99220.06
2022-10-28T09:55:53.493Z,99230.34
2022-10-28T09:59:18.614Z,99231.47
2022-10-28T10:03:00.550Z,99228.44
2022-10-28T10:06:27.168Z,99236.84
2022-10-28T10:09:48.519Z,99234.50
2022-10-28T10:13:12.047Z,99229.41
2022-10-28T10:16:41.740Z,99216.31
2022-10-28T10:20:10.992Z,99218.34
2022-10-28T10:23:34.435Z,99223.94
2022-10-28T10:26:56.229Z,99217.03
2022-10-28T10:30:21.782Z,99213.16
2022-10-28T10:33:31.414Z,99216.28
2022-10-28T10:37:00.059Z,99214.97
2022-10-28T10:40:31.284Z,99212.94
2022-10-28T10:43:55.620Z,99205.59
2022-10-28T10:47:22.927Z,99209.88
2022-10-28T10:53:56.006Z,99198.97
2022-10-28T10:57:10.267Z,99202.03
2022-10-28T11:00:20.561Z,99205.13
2022-10-28T11:03:30.529Z,99207.28
2022-10-28T11:06:41.903Z,99210.25
2022-10-28T11:14:40.009Z,99208.75
2022-10-28T11:17:59.098Z,99208.44
2022-10-28T11:21:10.444Z,99207.38
2022-10-28T11:24:33.365Z,99208.72
2022-10-28T11:27:57.451Z,99204.16
2022-10-28T11:31:27.921Z,99200.13
2022-10-28T11:34:49.691Z,99199.00
2022-10-28T11:38:09.458Z,99191.97
2022-10-28T11:41:23.814Z,99192.81
2022-10-28T11:44:45.188Z,99194.72
2022-10-28T11:48:08.026Z,99194.41
2022-10-28T11:51:37.882Z,99196.72
2022-10-28T11:54:57.889Z,99184.00
2022-10-28T11:58:16.192Z,99182.47
2022-10-28T12:01:47.866Z,99175.13
2022-10-28T12:05:06.234Z,99174.91
2022-10-28T12:08:34.356Z,99175.63
2022-10-28T12:11:51.015Z,99178.00
2022-10-28T12:15:07.086Z,99163.56
2022-10-28T12:18:24.963Z,99172.59
2022-10-28T12:21:36.058Z,99156.66
2022-10-28T12:24:47.359Z,99159.09
2022-10-28T12:27:57.414Z,99169.44
2022-10-28T12:31:06.503Z,99158.22
2022-10-28T12:34:21.358Z,99164.09
2022-10-28T12:37:34.221Z,99149.56
2022-10-28T12:40:47.019Z,99156.09
2022-10-28T12:43:57.600Z,99152.81
2022-10-28T12:47:19.030Z,99150.38
2022-10-28T12:50:34.841Z,99143.69
2022-10-28T12:53:48.043Z,99156.91
2022-10-28T12:57:01.359Z,99151.09
2022-10-28T13:00:18.973Z,99155.38
2022-10-28T13:03:26.026Z,99140.25
2022-10-28T13:07:06.553Z,99139.81
2022-10-28T13:10:27.531Z,99137.75
2022-10-28T13:13:50.261Z,99137.41
2022-10-28T13:17:22.806Z,99141.44
2022-10-28T13:20:46.726Z,99136.59
2022-10-28T13:24:01.143Z,99132.47
2022-10-28T13:27:15.298Z,99133.66
2022-10-28T13:30:24.066Z,99132.38
2022-10-28T13:33:31.864Z,99129.22
2022-10-28T13:36:42.965Z,99130.31
2022-10-28T13:39:50.362Z,99134.53
2022-10-28T13:43:00.441Z,99122.84
2022-10-28T13:46:07.891Z,99125.75
2022-10-28T13:49:26.427Z,99132.38
2022-10-28T13:52:32.387Z,99132.38
2022-10-28T13:55:46.925Z,99129.88
2022-10-28T13:58:58.797Z,99136.94
2022-10-28T14:02:36.255Z,99141.25
2022-10-28T14:05:57.503Z,99139.69
2022-10-28T14:09:06.363Z,99129.19
2022-10-28T14:12:23.060Z,99128.69
2022-10-28T14:15:35.099Z,99121.06
2022-10-28T14:18:44.125Z,99126.72
2022-10-28T14:22:03.984Z,99122.81
2022-10-28T14:25:57.542Z,99130.00
2022-10-28T14:29:04.195Z,99128.00
2022-10-28T14:32:47.128Z,99118.34
2022-10-28T14:36:19.057Z,99124.09
2022-10-28T14:39:43.043Z,99122.81
2022-10-28T14:43:06.851Z,99121.56
2022-10-28T14:46:30.536Z,99120.28
2022-10-28T14:49:41.733Z,99113.72
2022-10-28T14:52:49.771Z,99105.19
2022-10-28T14:56:10.863Z,99105.44
2022-10-28T14:59:34.601Z,99104.91
2022-10-28T15:02:41.341Z,99100.22
2022-10-28T15:05:50.158Z,99106.16
2022-10-28T15:08:57.673Z,99100.53
2022-10-28T15:12:06.841Z,99102.84
2022-10-28T15:15:20.346Z,99102.50
2022-10-28T15:18:27.487Z,99101.25
2022-10-28T15:21:36.717Z,99107.13
2022-10-28T15:24:46.201Z,99098.00
2022-10-28T15:27:55.433Z,99093.22
2022-10-28T15:31:03.822Z,99098.22
2022-10-28T15:34:23.760Z,99092.47
2022-10-28T15:37:33.807Z,99101.97
2022-10-28T15:40:40.394Z,99094.09
2022-10-28T15:43:57.470Z,99101.34
2022-10-28T15:47:10.559Z,99102.03
2022-10-28T15:50:29.994Z,99103.38
2022-10-28T15:53:42.128Z,99105.81
2022-10-28T15:56:57.441Z,99109.06
2022-10-28T16:00:23.005Z,99100.75
2022-10-28T16:03:31.339Z,99099.44
2022-10-28T16:06:40.220Z,99099.63
2022-10-28T16:09:52.147Z,99093.78
2022-10-28T16:12:58.919Z,99098.66
2022-10-28T16:16:08.903Z,99111.28
2022-10-28T16:19:30.610Z,99100.91
2022-10-28T16:22:39.439Z,99099.59
2022-10-28T16:25:48.727Z,99096.56
2022-10-28T16:28:54.992Z,99088.06
2022-10-28T16:32:03.593Z,99093.72
2022-10-28T16:35:17.263Z,99089.75
2022-10-28T16:38:23.832Z,99095.19
2022-10-28T16:41:32.238Z,99095.47
2022-10-28T16:44:39.374Z,99096.69
2022-10-28T16:47:45.008Z,99089.88
2022-10-28T16:50:54.101Z,99090.91
2022-10-28T16:54:01.028Z,99093.25
2022-10-28T16:57:11.517Z,99090.94
2022-10-28T17:00:17.530Z,99093.19
2022-10-28T17:03:24.447Z,99089.97
2022-10-28T17:06:30.033Z,99099.84
2022-10-28T17:09:36.887Z,99104.53
2022-10-28T17:12:45.341Z,99110.00
2022-10-28T17:15:55.744Z,99112.06
2022-10-28T17:19:01.363Z,99105.44
2022-10-28T17:22:10.307Z,99108.25
2022-10-28T17:25:16.161Z,99105.78
2022-10-28T17:28:25.620Z,99111.03
2022-10-28T17:31:31.238Z,99105.19
2022-10-28T17:34:37.729Z,99109.84
2022-10-28T17:37:43.387Z,99107.31
2022-10-28T17:40:57.130Z,99105.72
2022-10-28T17:44:08.083Z,99107.81
2022-10-28T17:47:15.122Z,99103.75
2022-10-28T17:50:20.777Z,99097.72
2022-10-28T17:53:27.324Z,99098.66
2022-10-28T17:56:32.971Z,99097.88
2022-10-28T17:59:42.169Z,99090.34
2022-10-28T18:02:47.978Z,99088.78
2022-10-28T18:05:54.972Z,99083.72
2022-10-28T18:09:03.563Z,99079.53
2022-10-28T18:12:11.832Z,99082.31
2022-10-28T18:15:20.447Z,99072.66
2022-10-28T18:18:29.072Z,99077.00
2022-10-28T18:21:35.076Z,99068.41
2022-10-28T18:24:41.524Z,99075.69
2022-10-28T18:27:47.386Z,99072.47
2022-10-28T18:30:56.642Z,99060.38
2022-10-28T18:34:03.592Z,99057.34
2022-10-28T18:37:11.964Z,99063.53
2022-10-28T18:40:17.938Z,99068.78
2022-10-28T18:43:24.769Z,99055.81
2022-10-28T18:46:35.532Z,99057.91
2022-10-28T18:49:41.986Z,99066.81
2022-10-28T18:52:47.605Z,99061.00
2022-10-28T18:55:54.618Z,99070.00
2022-10-28T18:59:01.175Z,99065.75
2022-10-28T19:02:12.076Z,99066.75
2022-10-28T19:05:18.105Z,99064.03
2022-10-28T19:08:24.564Z,99058.00
2022-10-28T19:11:33.073Z,99069.44
2022-10-28T19:14:39.797Z,99066.91
2022-10-28T19:17:48.587Z,99058.31
2022-10-28T19:20:57.360Z,99054.00
2022-10-28T19:24:03.746Z,99066.34
2022-10-28T19:27:10.543Z,99065.69
2022-10-28T19:30:16.374Z,99074.50
2022-10-28T19:33:25.757Z,99071.97
2022-10-28T19:36:32.795Z,99083.47
2022-10-28T19:39:39.249Z,99079.03
2022-10-28T19:42:45.158Z,99079.22
2022-10-28T19:45:51.953Z,99087.03
2022-10-28T19:49:03.552Z,99081.78
2022-10-28T19:52:10.148Z,99086.31
2022-10-28T19:55:15.804Z,99090.91
2022-10-28T19:58:22.328Z,99088.19
2022-10-28T20:01:29.863Z,99090.06
2022-10-28T20:04:39.682Z,99084.94
2022-10-28T20:07:45.281Z,99092.06
2022-10-28T20:11:00.625Z,99090.34
2022-10-28T20:14:10.897Z,99089.59
2022-10-28T20:17:17.728Z,99084.31
2022-10-28T20:20:26.747Z,99082.56
2022-10-28T20:23:33.444Z,99083.41
2022-10-28T20:26:40.691Z,99083.47
2022-10-28T20:29:47.185Z,99081.84
2022-10-28T20:32:55.752Z,99085.44
2022-10-28T20:36:06.781Z,99076.69
2022-10-28T20:39:15.739Z,99079.38
2022-10-28T20:42:22.219Z,99080.31
2022-10-28T20:45:27.821Z,99080.31
2022-10-28T20:48:34.486Z,99081.31
2022-10-28T20:51:43.033Z,99073.34
2022-10-28T20:54:49.514Z,99073.34
2022-10-28T20:57:55.156Z,99078.59
2022-10-28T21:01:06.519Z,99074.44
2022-10-28T21:04:14.026Z,99078.00
2022-10-28T21:07:23.219Z,99075.38
2022-10-28T21:10:28.982Z,99074.75
2022-10-28T21:13:35.939Z,99061.75
2022-10-28T21:16:41.657Z,99056.66
2022-10-28T21:19:48.190Z,99054.09
2022-10-28T21:22:56.970Z,99053.09
2022-10-28T21:26:06.292Z,99061.91
2022-10-28T21:29:11.883Z,99061.91
2022-10-28T21:32:18.383Z,99066.53
2022-10-28T21:35:24.802Z,99064.25
2022-10-28T21:38:37.465Z,99060.81
2022-10-28T21:41:43.075Z,99059.13
2022-10-28T21:44:49.529Z,99047.78
2022-10-28T21:47:57.760Z,99045.06
2022-10-28T21:51:09.878Z,99044.22
2022-10-28T21:54:23.022Z,99051.25
2022-10-28T21:57:33.064Z,99036.50
2022-10-28T22:00:39.332Z,99052.31
2022-10-28T22:03:46.003Z,99052.31
2022-10-28T22:06:52.389Z,99053.16
2022-10-28T22:10:03.854Z,99050.63
2022-10-28T22:13:09.782Z,99042.75
2022-10-28T22:16:17.706Z,99041.97
2022-10-28T22:19:23.965Z,99036.72
2022-10-28T22:22:31.432Z,99041.13
2022-10-28T22:25:39.781Z,99036.72
2022-10-28T22:28:46.469Z,99023.50
2022-10-28T22:31:52.362Z,99020.63
2022-10-28T22:34:58.803Z,99030.16
2022-10-28T22:38:06.266Z,99031.00
2022-10-28T22:41:20.585Z,99034.41
2022-10-28T22:44:26.166Z,99024.88
2022-10-28T22:47:32.635Z,99030.22
2022-10-28T22:50:38.254Z,99043.38
2022-10-28T22:53:45.058Z,99033.00
2022-10-28T22:56:53.935Z,99026.91
2022-10-28T23:00:00.364Z,99030.63
2022-10-28T23:03:08.013Z,99023.59
2022-10-28T23:06:15.887Z,99027.91
2022-10-28T23:09:21.646Z,99013.84
2022-10-28T23:12:30.990Z,99017.25
2022-10-28T23:15:37.148Z,99005.03
2022-10-28T23:18:45.220Z,99003.41
2022-10-28T23:21:51.012Z,98996.38
2022-10-28T23:24:57.984Z,98996.25
2022-10-28T23:28:07.868Z,99004.88
2022-10-28T23:31:17.480Z,98996.09
2022-10-28T23:34:23.350Z,98996.84
2022-10-28T23:37:29.992Z,98998.56
2022-10-28T23:40:36.420Z,98993.31
2022-10-28T23:43:45.785Z,98990.69
2022-10-28T23:46:51.327Z,98975.94
2022-10-28T23:49:57.793Z,98985.56
2022-10-28T23:53:04.582Z,98984.81
2022-10-28T23:56:11.279Z,98984.97
2022-10-28T23:59:19.635Z,98983.34
